createdAt,value
2022-11-26T00:00:56.077Z,10.32
2022-11-26T00:03:25.778Z,11.98
2022-11-26T00:05:56.994Z,10.23
2022-11-26T00:08:30.744Z,6.40
2022-11-26T00:10:58.979Z,7.22
2022-11-26T00:13:29.774Z,6.97
2022-11-26T00:15:58.220Z,6.03
2022-11-26T00:18:27.784Z,7.22
2022-11-26T00:20:58.085Z,6.50
2022-11-26T00:23:28.556Z,7.28
2022-11-26T00:25:59.049Z,6.82
2022-11-26T00:28:32.496Z,10.15
2022-11-26T00:31:02.408Z,12.05
2022-11-26T00:33:32.682Z,13.82
2022-11-26T00:36:05.043Z,13.90
2022-11-26T00:38:33.492Z,14.05
2022-11-26T00:41:02.156Z,15.07
2022-11-26T00:43:30.351Z,15.07
2022-11-26T00:45:58.493Z,14.45
2022-11-26T00:48:26.674Z,16.08
2022-11-26T00:50:56.196Z,16.02
2022-11-26T00:53:27.022Z,13.32
2022-11-26T00:55:55.342Z,13.52
2022-11-26T00:58:28.428Z,12.40
2022-11-26T01:01:01.435Z,14.02
2022-11-26T01:03:29.697Z,14.25
2022-11-26T01:06:00.202Z,14.90
2022-11-26T01:08:32.244Z,14.65
2022-11-26T01:11:01.043Z,13.30
2022-11-26T01:13:30.154Z,14.77
2022-11-26T01:16:00.088Z,14.40
2022-11-26T01:18:29.078Z,13.52
2022-11-26T01:20:57.270Z,13.50
2022-11-26T01:23:26.984Z,12.90
2022-11-26T01:25:55.252Z,12.20
2022-11-26T01:28:23.573Z,11.07
2022-11-26T01:30:51.761Z,11.02
2022-11-26T01:33:19.907Z,12.57
2022-11-26T01:35:48.019Z,12.32
2022-11-26T01:38:17.246Z,11.18
2022-11-26T01:41:06.565Z,10.70
2022-11-26T01:43:40.599Z,10.40
2022-11-26T01:46:16.506Z,9.70
2022-11-26T01:48:45.344Z,10.35
2022-11-26T01:51:14.344Z,9.93
2022-11-26T01:53:47.854Z,10.00
2022-11-26T01:56:35.014Z,8.80
2022-11-26T01:59:08.940Z,10.27
2022-11-26T02:01:37.569Z,9.55
2022-11-26T02:04:14.018Z,10.45
2022-11-26T02:06:43.789Z,9.20
2022-11-26T02:09:13.728Z,9.70
2022-11-26T02:11:43.592Z,9.25
2022-11-26T02:14:16.551Z,9.82
2022-11-26T02:17:07.670Z,10.73
2022-11-26T02:20:09.328Z,10.70
2022-11-26T02:23:02.140Z,9.90
2022-11-26T02:25:48.712Z,11.15
2022-11-26T02:28:35.458Z,12.38
2022-11-26T02:31:11.383Z,11.98
2022-11-26T02:33:46.491Z,11.68
2022-11-26T02:36:20.674Z,11.75
2022-11-26T02:38:48.894Z,11.35
2022-11-26T02:41:17.042Z,10.77
2022-11-26T02:43:45.262Z,10.70
2022-11-26T02:46:18.625Z,10.65
2022-11-26T02:48:51.218Z,11.00
2022-11-26T02:51:23.474Z,10.65
2022-11-26T02:53:53.542Z,11.40
2022-11-26T02:56:25.733Z,10.77
2022-11-26T02:58:55.555Z,10.18
2022-11-26T03:01:32.020Z,11.25
2022-11-26T03:04:04.870Z,11.48
2022-11-26T03:06:34.529Z,10.35
2022-11-26T03:09:02.749Z,11.80
2022-11-26T03:11:31.153Z,11.57
2022-11-26T03:13:59.319Z,12.48
2022-11-26T03:16:29.744Z,12.32
2022-11-26T03:18:57.926Z,10.80
2022-11-26T03:21:26.088Z,13.65
2022-11-26T03:23:54.323Z,12.27
2022-11-26T03:26:22.416Z,12.40
2022-11-26T03:28:50.902Z,12.80
2022-11-26T03:31:19.123Z,10.90
2022-11-26T03:33:48.823Z,10.85
2022-11-26T03:36:16.961Z,10.75
2022-11-26T03:38:45.184Z,11.93
2022-11-26T03:41:13.633Z,11.40
2022-11-26T03:43:41.875Z,13.48
2022-11-26T03:46:10.028Z,13.63
2022-11-26T03:48:38.355Z,12.60
2022-11-26T03:51:08.038Z,12.27
2022-11-26T03:53:36.194Z,13.18
2022-11-26T03:56:04.403Z,12.98
2022-11-26T03:58:32.621Z,12.35
2022-11-26T04:01:00.782Z,13.20
2022-11-26T04:03:29.122Z,14.70
2022-11-26T04:05:57.302Z,13.68
2022-11-26T04:08:26.935Z,14.30
2022-11-26T04:10:55.265Z,14.50
2022-11-26T04:13:23.481Z,12.82
2022-11-26T04:15:51.664Z,13.98
2022-11-26T04:18:19.931Z,12.68
2022-11-26T04:20:52.827Z,14.23
2022-11-26T04:23:21.921Z,13.50
2022-11-26T04:25:51.702Z,14.18
2022-11-26T04:28:20.291Z,16.27
2022-11-26T04:30:48.420Z,13.57
2022-11-26T04:33:16.662Z,14.55
2022-11-26T04:35:45.080Z,13.48
2022-11-26T04:38:13.352Z,13.90
2022-11-26T04:40:41.721Z,14.45
2022-11-26T04:43:11.445Z,14.55
2022-11-26T04:45:39.710Z,15.90
2022-11-26T04:48:08.458Z,14.23
2022-11-26T04:50:36.670Z,14.95
2022-11-26T04:53:04.814Z,13.80
2022-11-26T04:55:33.024Z,12.50
2022-11-26T04:58:01.233Z,14.25
2022-11-26T05:00:30.742Z,14.55
2022-11-26T05:02:59.001Z,13.52
2022-11-26T05:05:27.152Z,15.18
2022-11-26T05:07:55.349Z,14.40
2022-11-26T05:10:23.564Z,13.88
2022-11-26T05:12:51.715Z,14.77
2022-11-26T05:15:19.878Z,14.10
2022-11-26T05:17:49.489Z,13.65
2022-11-26T05:20:17.769Z,14.15
2022-11-26T05:22:45.939Z,14.65
2022-11-26T05:25:14.091Z,13.27
2022-11-26T05:27:42.291Z,14.25
2022-11-26T05:30:11.357Z,16.48
2022-11-26T05:32:39.550Z,14.05
2022-11-26T05:35:10.065Z,16.40
2022-11-26T05:37:38.322Z,16.45
2022-11-26T05:40:08.696Z,15.77
2022-11-26T05:42:37.455Z,17.50
2022-11-26T05:45:06.927Z,15.70
2022-11-26T05:47:35.039Z,15.70
2022-11-26T05:50:03.346Z,15.25
2022-11-26T05:52:32.847Z,16.58
2022-11-26T05:55:01.045Z,16.58
2022-11-26T05:57:29.231Z,17.40
2022-11-26T05:59:57.336Z,18.50
2022-11-26T06:02:25.801Z,17.23
2022-11-26T06:04:54.085Z,18.45
2022-11-26T06:07:22.415Z,16.80
2022-11-26T06:09:51.965Z,17.15
2022-11-26T06:12:20.115Z,21.23
2022-11-26T06:14:48.671Z,21.73
2022-11-26T06:17:17.299Z,21.83
2022-11-26T06:19:45.501Z,21.00
2022-11-26T06:22:13.895Z,23.00
2022-11-26T06:24:42.060Z,23.30
2022-11-26T06:27:11.623Z,22.60
2022-11-26T06:29:40.213Z,23.00
2022-11-26T06:32:08.399Z,21.65
2022-11-26T06:34:36.984Z,23.73
2022-11-26T06:37:05.448Z,22.05
2022-11-26T06:39:33.734Z,23.45
2022-11-26T06:42:01.950Z,23.83
2022-11-26T06:44:31.509Z,21.90
2022-11-26T06:46:59.680Z,23.85
2022-11-26T06:49:27.898Z,23.50
2022-11-26T06:51:56.726Z,23.77
2022-11-26T06:54:24.893Z,23.25
2022-11-26T06:56:53.770Z,22.90
2022-11-26T06:59:21.927Z,23.13
2022-11-26T07:01:51.681Z,21.40
2022-11-26T07:04:19.942Z,22.85
2022-11-26T07:06:48.191Z,22.30
2022-11-26T07:09:16.820Z,21.20
2022-11-26T07:11:45.214Z,21.02
2022-11-26T07:14:13.331Z,22.70
2022-11-26T07:16:41.977Z,20.83
2022-11-26T07:19:14.993Z,19.60
2022-11-26T07:21:43.242Z,22.88
2022-11-26T07:24:11.494Z,18.90
2022-11-26T07:26:39.658Z,19.55
2022-11-26T07:29:07.980Z,19.48
2022-11-26T07:31:36.337Z,17.70
2022-11-26T07:34:04.865Z,18.50
2022-11-26T07:36:34.535Z,18.80
2022-11-26T07:39:03.948Z,17.55
2022-11-26T07:41:32.054Z,20.85
2022-11-26T07:44:00.158Z,22.10
2022-11-26T07:46:28.497Z,19.45
2022-11-26T07:48:57.475Z,19.45
2022-11-26T07:51:27.012Z,20.25
2022-11-26T07:53:58.839Z,18.40
2022-11-26T07:56:27.560Z,18.77
2022-11-26T07:58:56.402Z,17.70
2022-11-26T08:01:27.258Z,18.42
2022-11-26T08:03:55.484Z,14.40
2022-11-26T08:06:26.041Z,14.73
2022-11-26T08:08:54.629Z,14.45
2022-11-26T08:11:26.451Z,15.68
2022-11-26T08:13:55.461Z,13.60
2022-11-26T08:16:23.767Z,12.60
2022-11-26T08:18:54.821Z,13.20
2022-11-26T08:21:23.388Z,13.70
2022-11-26T08:23:53.065Z,12.82
2022-11-26T08:26:32.987Z,11.52
2022-11-26T08:29:05.550Z,10.32
2022-11-26T08:31:34.970Z,12.40
2022-11-26T08:34:04.178Z,11.65
2022-11-26T08:36:33.306Z,9.82
2022-11-26T08:39:02.188Z,11.20
2022-11-26T08:41:30.348Z,11.77
2022-11-26T08:44:06.968Z,11.65
2022-11-26T08:46:38.123Z,11.70
2022-11-26T08:49:07.385Z,12.20
2022-11-26T08:51:35.669Z,13.23
2022-11-26T08:54:04.012Z,11.55
2022-11-26T08:56:32.245Z,12.57
2022-11-26T08:59:00.374Z,11.93
2022-11-26T09:01:30.803Z,13.82
2022-11-26T09:04:02.115Z,13.63
2022-11-26T09:06:31.732Z,13.40
2022-11-26T09:09:17.709Z,11.95
2022-11-26T09:11:51.452Z,11.55
2022-11-26T09:14:21.607Z,13.02
2022-11-26T09:16:49.934Z,11.70
2022-11-26T09:19:20.037Z,12.38
2022-11-26T09:21:48.300Z,12.55
2022-11-26T09:24:17.640Z,13.00
2022-11-26T09:26:46.207Z,11.85
2022-11-26T09:29:15.987Z,12.00
2022-11-26T09:32:07.427Z,11.48
2022-11-26T09:34:34.309Z,11.05
2022-11-26T09:37:02.539Z,11.27
2022-11-26T09:39:31.053Z,11.80
2022-11-26T09:42:07.246Z,11.52
2022-11-26T09:44:57.183Z,11.13
2022-11-26T09:47:27.884Z,10.38
2022-11-26T09:50:17.563Z,12.25
2022-11-26T09:52:53.559Z,11.68
2022-11-26T09:55:25.488Z,10.75
2022-11-26T09:58:04.658Z,11.65
2022-11-26T10:00:39.211Z,11.30
2022-11-26T10:03:15.114Z,11.27
2022-11-26T10:05:51.236Z,11.10
2022-11-26T10:08:48.019Z,12.98
2022-11-26T10:11:24.367Z,11.23
2022-11-26T10:14:02.407Z,10.07
2022-11-26T10:16:37.955Z,9.77
2022-11-26T10:19:15.835Z,10.13
2022-11-26T10:22:03.279Z,10.32
2022-11-26T10:24:34.807Z,10.23
2022-11-26T10:27:11.017Z,10.82
2022-11-26T10:29:41.961Z,11.55
2022-11-26T10:32:16.699Z,10.85
2022-11-26T10:34:50.775Z,13.02
2022-11-26T10:37:21.729Z,11.65
2022-11-26T10:39:55.222Z,11.38
2022-11-26T10:42:27.477Z,11.82
2022-11-26T10:44:55.730Z,12.35
2022-11-26T10:47:27.561Z,11.80
2022-11-26T10:49:58.464Z,9.20
2022-11-26T10:52:30.444Z,10.43
2022-11-26T10:55:11.687Z,11.88
2022-11-26T10:57:46.959Z,12.20
2022-11-26T11:00:35.552Z,11.97
2022-11-26T11:03:05.777Z,11.17
2022-11-26T11:05:35.867Z,10.90
2022-11-26T11:08:05.448Z,12.13
2022-11-26T11:10:34.573Z,11.37
2022-11-26T11:13:10.314Z,10.90
2022-11-26T11:15:41.282Z,10.53
2022-11-26T11:18:19.602Z,11.60
2022-11-26T11:20:56.734Z,11.50
2022-11-26T11:23:52.385Z,12.47
2022-11-26T11:26:21.444Z,11.10
2022-11-26T11:28:52.362Z,11.13
2022-11-26T11:31:22.434Z,10.27
2022-11-26T11:33:52.132Z,9.40
2022-11-26T11:36:28.472Z,9.67
2022-11-26T11:38:59.973Z,10.37
2022-11-26T11:41:32.186Z,10.40
2022-11-26T11:44:04.671Z,9.93
2022-11-26T11:46:57.714Z,8.50
2022-11-26T11:49:39.174Z,9.57
2022-11-26T11:52:19.060Z,8.83
2022-11-26T11:55:00.113Z,8.77
2022-11-26T11:57:55.393Z,8.70
2022-11-26T12:00:25.431Z,7.80
2022-11-26T12:03:14.113Z,8.30
2022-11-26T12:05:49.897Z,9.00
2022-11-26T12:08:34.262Z,8.80
2022-11-26T12:11:20.673Z,8.70
2022-11-26T12:13:53.330Z,9.57
2022-11-26T12:16:25.690Z,9.70
2022-11-26T12:18:59.377Z,9.20
2022-11-26T12:21:35.577Z,9.60
2022-11-26T12:24:09.032Z,9.03
2022-11-26T12:26:45.219Z,10.20
2022-11-26T12:29:19.511Z,7.50
2022-11-26T12:31:54.008Z,9.20
2022-11-26T12:34:28.863Z,9.17
2022-11-26T12:37:01.961Z,7.53
2022-11-26T12:39:40.980Z,7.43
2022-11-26T12:42:18.484Z,8.07
2022-11-26T12:44:51.735Z,6.80
2022-11-26T12:47:25.692Z,8.10
2022-11-26T12:50:08.548Z,7.00
2022-11-26T12:52:45.213Z,7.73
2022-11-26T12:55:20.770Z,9.07
2022-11-26T12:57:56.589Z,8.50
2022-11-26T13:00:34.260Z,7.67
2022-11-26T13:03:06.228Z,8.30
2022-11-26T13:05:38.621Z,8.27
2022-11-26T13:08:30.811Z,8.53
2022-11-26T13:11:11.864Z,7.37
2022-11-26T13:13:49.967Z,8.37
2022-11-26T13:16:28.031Z,8.90
2022-11-26T13:19:06.465Z,7.37
2022-11-26T13:21:46.863Z,7.17
2022-11-26T13:24:29.508Z,7.57
2022-11-26T13:27:21.094Z,6.60
2022-11-26T13:30:11.813Z,6.10
2022-11-26T13:32:58.774Z,6.20
2022-11-26T13:35:46.442Z,7.80
2022-11-26T13:38:22.587Z,6.23
2022-11-26T13:41:28.949Z,6.10
2022-11-26T13:44:30.732Z,6.43
2022-11-26T13:47:02.707Z,6.63
2022-11-26T13:49:36.477Z,6.45
2022-11-26T13:52:07.798Z,7.25
2022-11-26T13:54:42.299Z,7.65
2022-11-26T13:57:16.133Z,8.48
2022-11-26T13:59:47.571Z,9.50
2022-11-26T14:02:42.703Z,9.23
2022-11-26T14:05:12.753Z,7.78
2022-11-26T14:07:41.898Z,6.97
2022-11-26T14:10:31.270Z,7.78
2022-11-26T14:13:16.157Z,5.50
2022-11-26T14:15:59.497Z,4.32
2022-11-26T14:19:07.158Z,6.13
2022-11-26T14:22:00.138Z,8.45
2022-11-26T14:24:54.517Z,4.32
2022-11-26T14:27:24.209Z,6.45
2022-11-26T14:29:58.869Z,3.85
2022-11-26T14:32:29.843Z,3.78
2022-11-26T14:34:59.237Z,4.95
2022-11-26T14:37:30.417Z,5.40
2022-11-26T14:39:59.774Z,5.10
2022-11-26T14:42:28.635Z,6.20
2022-11-26T14:45:07.523Z,6.57
2022-11-26T14:47:35.824Z,6.82
2022-11-26T14:50:07.889Z,6.38
2022-11-26T14:52:40.115Z,7.68
2022-11-26T14:55:17.617Z,7.38
2022-11-26T14:57:48.754Z,8.07
2022-11-26T15:00:27.007Z,8.40
2022-11-26T15:02:55.813Z,7.13
2022-11-26T15:05:25.635Z,10.25
2022-11-26T15:08:02.405Z,11.57
2022-11-26T15:10:35.777Z,12.25
2022-11-26T15:13:07.694Z,15.68
2022-11-26T15:15:36.001Z,17.65
2022-11-26T15:18:06.823Z,19.20
2022-11-26T15:20:35.322Z,19.90
2022-11-26T15:23:06.781Z,21.13
2022-11-26T15:25:37.429Z,23.60
2022-11-26T15:28:07.338Z,21.95
2022-11-26T15:30:37.097Z,21.65
2022-11-26T15:33:13.602Z,22.70
2022-11-26T15:35:43.760Z,25.50
2022-11-26T15:38:15.625Z,25.15
2022-11-26T15:40:49.002Z,25.10
2022-11-26T15:43:23.786Z,24.83
2022-11-26T15:45:54.851Z,24.55
2022-11-26T15:48:36.400Z,23.65
2022-11-26T15:51:22.093Z,21.60
2022-11-26T15:53:52.314Z,25.08
2022-11-26T15:56:23.471Z,23.60
2022-11-26T15:58:56.727Z,22.35
2022-11-26T16:01:28.501Z,20.85
2022-11-26T16:04:00.204Z,23.98
2022-11-26T16:06:33.715Z,24.13
2022-11-26T16:09:08.017Z,23.55
2022-11-26T16:11:37.351Z,25.60
2022-11-26T16:14:32.245Z,25.02
2022-11-26T16:17:08.092Z,26.55
2022-11-26T16:19:38.205Z,26.17
2022-11-26T16:22:07.499Z,25.13
2022-11-26T16:24:40.856Z,24.88
2022-11-26T16:27:26.268Z,29.30
2022-11-26T16:29:54.422Z,29.88
2022-11-26T16:32:22.728Z,38.50
2022-11-26T16:34:50.989Z,30.00
2022-11-26T16:37:22.917Z,30.77
2022-11-26T16:39:54.460Z,30.80
2022-11-26T16:42:24.318Z,30.65
2022-11-26T16:44:52.899Z,28.27
2022-11-26T16:47:25.175Z,31.60
2022-11-26T16:49:53.860Z,25.48
2022-11-26T16:52:22.246Z,27.20
2022-11-26T16:54:52.066Z,26.17
2022-11-26T16:57:22.227Z,25.75
2022-11-26T16:59:56.960Z,25.80
2022-11-26T17:02:25.710Z,26.50
2022-11-26T17:04:54.059Z,30.02
2022-11-26T17:07:26.286Z,42.65
2022-11-26T17:09:57.187Z,55.50
2022-11-26T17:12:26.675Z,42.67
2022-11-26T17:14:54.891Z,38.88
2022-11-26T17:17:25.565Z,37.28
2022-11-26T17:19:53.883Z,37.40
2022-11-26T17:22:22.046Z,39.83
2022-11-26T17:24:50.255Z,42.05
2022-11-26T17:27:23.378Z,42.45
2022-11-26T17:29:51.568Z,46.75
2022-11-26T17:32:20.774Z,46.33
2022-11-26T17:34:49.168Z,46.95
2022-11-26T17:37:24.577Z,47.83
2022-11-26T17:39:52.860Z,53.85
2022-11-26T17:42:23.893Z,46.80
2022-11-26T17:44:52.744Z,45.00
2022-11-26T17:47:22.697Z,45.47
2022-11-26T17:49:52.076Z,47.22
2022-11-26T17:52:20.758Z,45.72
2022-11-26T17:54:48.973Z,44.35
2022-11-26T17:57:18.476Z,32.60
2022-11-26T17:59:47.974Z,30.50
2022-11-26T18:02:16.220Z,27.58
2022-11-26T18:04:44.410Z,29.08
2022-11-26T18:07:15.223Z,28.73
2022-11-26T18:09:43.843Z,41.78
2022-11-26T18:12:24.453Z,41.08
2022-11-26T18:14:55.578Z,36.25
2022-11-26T18:17:24.253Z,37.13
2022-11-26T18:19:52.568Z,37.15
2022-11-26T18:22:22.981Z,37.45
2022-11-26T18:24:56.917Z,38.30
2022-11-26T18:27:30.650Z,41.65
2022-11-26T18:30:00.755Z,42.60
2022-11-26T18:32:28.968Z,40.03
2022-11-26T18:34:57.108Z,44.28
2022-11-26T18:37:25.307Z,41.88
2022-11-26T18:39:53.529Z,44.75
2022-11-26T18:42:36.521Z,39.13
2022-11-26T18:45:10.266Z,40.22
2022-11-26T18:47:38.692Z,39.38
2022-11-26T18:50:08.420Z,38.42
2022-11-26T18:52:36.568Z,34.28
2022-11-26T18:55:08.126Z,37.55
2022-11-26T18:57:36.307Z,33.10
2022-11-26T19:00:09.088Z,38.65
2022-11-26T19:02:37.360Z,39.63
2022-11-26T19:05:06.382Z,40.38
2022-11-26T19:07:34.956Z,41.58
2022-11-26T19:10:03.233Z,39.33
2022-11-26T19:12:31.633Z,34.42
2022-11-26T19:14:59.788Z,32.95
2022-11-26T19:17:29.359Z,37.45
2022-11-26T19:19:57.573Z,37.25
2022-11-26T19:22:25.851Z,38.50
2022-11-26T19:24:54.029Z,35.90
2022-11-26T19:27:22.211Z,34.35
2022-11-26T19:29:50.456Z,36.97
2022-11-26T19:32:19.032Z,32.03
2022-11-26T19:34:48.540Z,29.35
2022-11-26T19:37:17.079Z,22.30
2022-11-26T19:39:45.819Z,24.00
2022-11-26T19:42:14.070Z,22.75
2022-11-26T19:44:42.194Z,23.88
2022-11-26T19:47:10.434Z,22.55
2022-11-26T19:49:39.008Z,21.98
2022-11-26T19:52:08.828Z,19.10
2022-11-26T19:54:37.275Z,20.77
2022-11-26T19:57:07.119Z,18.48
2022-11-26T19:59:35.300Z,27.80
2022-11-26T20:02:03.657Z,23.45
2022-11-26T20:04:32.010Z,23.15
2022-11-26T20:07:00.242Z,27.38
2022-11-26T20:09:29.764Z,22.98
2022-11-26T20:11:57.934Z,21.33
2022-11-26T20:14:26.138Z,19.50
2022-11-26T20:16:59.431Z,20.40
2022-11-26T20:19:29.192Z,21.25
2022-11-26T20:21:57.403Z,26.67
2022-11-26T20:24:25.935Z,18.90
2022-11-26T20:26:55.718Z,24.13
2022-11-26T20:29:25.243Z,19.67
2022-11-26T20:31:54.301Z,17.45
2022-11-26T20:34:24.288Z,18.17
2022-11-26T20:36:52.593Z,25.65
2022-11-26T20:39:23.462Z,26.65
2022-11-26T20:41:51.950Z,27.05
2022-11-26T20:44:23.130Z,25.48
2022-11-26T20:46:51.517Z,21.50
2022-11-26T20:49:19.681Z,18.40
2022-11-26T20:51:47.897Z,16.58
2022-11-26T20:54:16.060Z,20.33
2022-11-26T20:56:44.219Z,20.33
2022-11-26T20:59:12.454Z,25.38
2022-11-26T21:01:42.000Z,20.52
2022-11-26T21:04:10.328Z,25.85
2022-11-26T21:06:38.518Z,27.27
2022-11-26T21:09:07.304Z,28.38
2022-11-26T21:11:36.055Z,25.38
2022-11-26T21:14:04.406Z,18.92
2022-11-26T21:16:33.697Z,20.80
2022-11-26T21:19:03.390Z,20.20
2022-11-26T21:21:31.533Z,21.02
2022-11-26T21:24:04.512Z,28.50
2022-11-26T21:26:33.000Z,26.98
2022-11-26T21:29:02.578Z,26.20
2022-11-26T21:31:32.784Z,22.58
2022-11-26T21:34:02.845Z,22.77
2022-11-26T21:36:33.718Z,25.15
2022-11-26T21:39:01.889Z,23.33
2022-11-26T21:41:32.053Z,22.77
2022-11-26T21:44:03.757Z,26.23
2022-11-26T21:46:38.524Z,23.67
2022-11-26T21:49:07.964Z,20.58
2022-11-26T21:51:37.501Z,21.42
2022-11-26T21:54:06.147Z,22.25
2022-11-26T21:56:34.815Z,20.55
2022-11-26T21:59:03.210Z,21.13
2022-11-26T22:01:32.806Z,18.85
2022-11-26T22:04:03.173Z,20.10
2022-11-26T22:06:31.579Z,21.85
2022-11-26T22:09:01.401Z,19.75
2022-11-26T22:11:31.594Z,20.35
2022-11-26T22:13:59.985Z,19.38
2022-11-26T22:16:30.031Z,20.98
2022-11-26T22:19:00.128Z,20.30
2022-11-26T22:21:30.738Z,20.98
2022-11-26T22:24:00.340Z,22.40
2022-11-26T22:26:31.181Z,23.45
2022-11-26T22:28:59.873Z,20.48
2022-11-26T22:31:29.998Z,19.85
2022-11-26T22:34:00.094Z,22.85
2022-11-26T22:36:29.135Z,23.15
2022-11-26T22:38:58.627Z,23.80
2022-11-26T22:41:27.443Z,23.23
2022-11-26T22:43:58.846Z,21.65
2022-11-26T22:46:27.261Z,24.40
2022-11-26T22:48:57.270Z,22.90
2022-11-26T22:51:27.048Z,23.55
2022-11-26T22:53:56.821Z,24.33
2022-11-26T22:56:26.087Z,24.33
2022-11-26T22:58:54.268Z,23.05
2022-11-26T23:01:25.398Z,26.00
2022-11-26T23:03:54.491Z,25.83
2022-11-26T23:06:24.908Z,25.38
2022-11-26T23:08:53.656Z,24.63
2022-11-26T23:11:24.268Z,25.58
2022-11-26T23:13:52.965Z,25.23
2022-11-26T23:16:24.110Z,25.88
2022-11-26T23:18:52.776Z,27.70
2022-11-26T23:21:23.162Z,29.73
2022-11-26T23:23:51.863Z,28.48
2022-11-26T23:26:26.859Z,28.10
2022-11-26T23:28:56.231Z,25.83
2022-11-26T23:31:28.507Z,25.98
2022-11-26T23:33:57.007Z,27.05
2022-11-26T23:36:26.305Z,27.50
2022-11-26T23:38:54.675Z,26.88
2022-11-26T23:41:22.890Z,30.42
2022-11-26T23:43:51.123Z,28.67
2022-11-26T23:46:21.855Z,29.23
2022-11-26T23:48:52.696Z,29.38
2022-11-26T23:51:22.741Z,27.05
2022-11-26T23:53:52.155Z,27.52
2022-11-26T23:56:22.328Z,28.33
2022-11-26T23:58:50.966Z,28.77
